sensor_id;sensor_type;location;lat;lon;timestamp;temperature;humidity
11855;DHT22;5987;53.140;8.904;2024-01-06T00:02:38;2.40;99.90
11855;DHT22;5987;53.140;8.904;2024-01-06T00:05:42;2.40;99.90
11855;DHT22;5987;53.140;8.904;2024-01-06T00:08:47;2.30;99.90
11855;DHT22;5987;53.140;8.904;2024-01-06T00:11:56;2.30;99.90
11855;DHT22;5987;53.140;8.904;2024-01-06T00:15:00;2.30;99.90
11855;DHT22;5987;53.140;8.904;2024-01-06T00:18:05;2.30;99.90
11855;DHT22;5987;53.140;8.904;2024-01-06T00:21:09;2.30;99.90
11855;DHT22;5987;53.140;8.904;2024-01-06T00:24:13;2.30;99.90
11855;DHT22;5987;53.140;8.904;2024-01-06T00:27:17;2.30;99.90
11855;DHT22;5987;53.140;8.904;2024-01-06T00:30:21;2.30;99.90
11855;DHT22;5987;53.140;8.904;2024-01-06T00:33:26;2.30;99.90
11855;DHT22;5987;53.140;8.904;2024-01-06T00:36:30;2.20;99.90
11855;DHT22;5987;53.140;8.904;2024-01-06T00:39:34;2.20;99.90
11855;DHT22;5987;53.140;8.904;2024-01-06T00:42:38;2.20;99.90
11855;DHT22;5987;53.140;8.904;2024-01-06T00:45:42;2.20;99.90
11855;DHT22;5987;53.140;8.904;2024-01-06T00:48:48;2.20;99.90
11855;DHT22;5987;53.140;8.904;2024-01-06T00:51:52;2.20;99.90
11855;DHT22;5987;53.140;8.904;2024-01-06T00:54:56;2.20;99.90
11855;DHT22;5987;53.140;8.904;2024-01-06T00:58:00;2.10;99.90
11855;DHT22;5987;53.140;8.904;2024-01-06T01:01:04;2.10;99.90
11855;DHT22;5987;53.140;8.904;2024-01-06T01:04:09;2.20;99.90
11855;DHT22;5987;53.140;8.904;2024-01-06T01:07:13;2.10;99.90
11855;DHT22;5987;53.140;8.904;2024-01-06T01:10:17;2.20;99.90
11855;DHT22;5987;53.140;8.904;2024-01-06T01:13:21;2.20;99.90
11855;DHT22;5987;53.140;8.904;2024-01-06T01:16:25;2.10;99.90
11855;DHT22;5987;53.140;8.904;2024-01-06T01:19:30;2.10;99.90
11855;DHT22;5987;53.140;8.904;2024-01-06T01:22:34;2.10;99.90
11855;DHT22;5987;53.140;8.904;2024-01-06T01:25:38;2.10;99.90
11855;DHT22;5987;53.140;8.904;2024-01-06T01:28:42;2.10;99.90
11855;DHT22;5987;53.140;8.904;2024-01-06T01:31:46;2.10;99.90
11855;DHT22;5987;53.140;8.904;2024-01-06T01:34:51;2.10;99.90
11855;DHT22;5987;53.140;8.904;2024-01-06T01:37:55;2.00;99.90
11855;DHT22;5987;53.140;8.904;2024-01-06T01:40:59;2.00;99.90
11855;DHT22;5987;53.140;8.904;2024-01-06T01:44:03;2.10;99.90
11855;DHT22;5987;53.140;8.904;2024-01-06T01:47:07;2.10;99.90
11855;DHT22;5987;53.140;8.904;2024-01-06T01:50:14;2.00;99.90
11855;DHT22;5987;53.140;8.904;2024-01-06T01:53:18;2.10;99.90
11855;DHT22;5987;53.140;8.904;2024-01-06T01:56:23;2.10;99.90
11855;DHT22;5987;53.140;8.904;2024-01-06T01:59:28;2.00;99.90
11855;DHT22;5987;53.140;8.904;2024-01-06T02:02:32;2.00;99.90
11855;DHT22;5987;53.140;8.904;2024-01-06T02:05:37;2.10;99.90
11855;DHT22;5987;53.140;8.904;2024-01-06T02:08:41;2.10;99.90
11855;DHT22;5987;53.140;8.904;2024-01-06T02:11:45;2.10;99.90
11855;DHT22;5987;53.140;8.904;2024-01-06T02:14:48;2.00;99.90
11855;DHT22;5987;53.140;8.904;2024-01-06T02:17:52;2.00;99.90
11855;DHT22;5987;53.140;8.904;2024-01-06T02:20:58;2.00;99.90
11855;DHT22;5987;53.140;8.904;2024-01-06T02:24:05;1.90;99.90
11855;DHT22;5987;53.140;8.904;2024-01-06T02:27:09;1.90;99.90
11855;DHT22;5987;53.140;8.904;2024-01-06T02:30:13;1.90;99.90
11855;DHT22;5987;53.140;8.904;2024-01-06T02:33:17;1.90;99.90
11855;DHT22;5987;53.140;8.904;2024-01-06T02:36:22;1.90;99.90
11855;DHT22;5987;53.140;8.904;2024-01-06T02:39:27;1.90;99.90
11855;DHT22;5987;53.140;8.904;2024-01-06T02:42:31;1.90;99.90
11855;DHT22;5987;53.140;8.904;2024-01-06T02:45:38;1.90;99.90
11855;DHT22;5987;53.140;8.904;2024-01-06T02:48:42;1.90;99.90
11855;DHT22;5987;53.140;8.904;2024-01-06T02:51:46;1.80;99.90
11855;DHT22;5987;53.140;8.904;2024-01-06T02:54:51;1.90;99.90
11855;DHT22;5987;53.140;8.904;2024-01-06T02:57:55;1.80;99.90
11855;DHT22;5987;53.140;8.904;2024-01-06T03:00:59;1.80;99.90
11855;DHT22;5987;53.140;8.904;2024-01-06T03:04:03;1.80;99.90
11855;DHT22;5987;53.140;8.904;2024-01-06T03:07:07;1.80;99.90
11855;DHT22;5987;53.140;8.904;2024-01-06T03:10:12;1.80;99.90
11855;DHT22;5987;53.140;8.904;2024-01-06T03:13:16;1.80;99.90
11855;DHT22;5987;53.140;8.904;2024-01-06T03:16:20;1.70;99.90
11855;DHT22;5987;53.140;8.904;2024-01-06T03:19:24;1.80;99.90
11855;DHT22;5987;53.140;8.904;2024-01-06T03:22:30;1.80;99.90
11855;DHT22;5987;53.140;8.904;2024-01-06T03:25:35;1.70;99.90
11855;DHT22;5987;53.140;8.904;2024-01-06T03:28:39;1.70;99.90
11855;DHT22;5987;53.140;8.904;2024-01-06T03:31:43;1.70;99.90
11855;DHT22;5987;53.140;8.904;2024-01-06T03:34:47;1.80;99.90
11855;DHT22;5987;53.140;8.904;2024-01-06T03:37:51;1.80;99.90
11855;DHT22;5987;53.140;8.904;2024-01-06T03:40:56;1.80;99.90
11855;DHT22;5987;53.140;8.904;2024-01-06T03:44:00;1.70;99.90
11855;DHT22;5987;53.140;8.904;2024-01-06T03:47:04;1.80;99.90
11855;DHT22;5987;53.140;8.904;2024-01-06T03:50:08;1.70;99.90
11855;DHT22;5987;53.140;8.904;2024-01-06T03:53:12;1.70;99.90
11855;DHT22;5987;53.140;8.904;2024-01-06T03:56:18;1.70;99.90
11855;DHT22;5987;53.140;8.904;2024-01-06T03:59:21;1.80;99.90
11855;DHT22;5987;53.140;8.904;2024-01-06T04:02:25;1.80;99.90
11855;DHT22;5987;53.140;8.904;2024-01-06T04:05:29;1.80;99.90
11855;DHT22;5987;53.140;8.904;2024-01-06T04:08:33;1.70;99.90
11855;DHT22;5987;53.140;8.904;2024-01-06T04:11:38;1.70;99.90
11855;DHT22;5987;53.140;8.904;2024-01-06T04:14:42;1.60;99.90
11855;DHT22;5987;53.140;8.904;2024-01-06T04:17:49;1.60;99.90
11855;DHT22;5987;53.140;8.904;2024-01-06T04:20:54;1.60;99.90
11855;DHT22;5987;53.140;8.904;2024-01-06T04:23:58;1.60;99.90
11855;DHT22;5987;53.140;8.904;2024-01-06T04:27:04;1.70;99.90
11855;DHT22;5987;53.140;8.904;2024-01-06T04:30:09;1.70;99.90
11855;DHT22;5987;53.140;8.904;2024-01-06T04:33:14;1.70;99.90
11855;DHT22;5987;53.140;8.904;2024-01-06T04:36:18;1.60;99.90
11855;DHT22;5987;53.140;8.904;2024-01-06T04:39:22;1.60;99.90
11855;DHT22;5987;53.140;8.904;2024-01-06T04:42:27;1.70;99.90
11855;DHT22;5987;53.140;8.904;2024-01-06T04:45:31;1.70;99.90
11855;DHT22;5987;53.140;8.904;2024-01-06T04:48:35;1.60;99.90
11855;DHT22;5987;53.140;8.904;2024-01-06T04:51:39;1.60;99.90
11855;DHT22;5987;53.140;8.904;2024-01-06T04:54:43;1.70;99.90
11855;DHT22;5987;53.140;8.904;2024-01-06T04:57:49;1.60;99.90
11855;DHT22;5987;53.140;8.904;2024-01-06T05:00:53;1.70;99.90
11855;DHT22;5987;53.140;8.904;2024-01-06T05:03:57;1.70;99.90
11855;DHT22;5987;53.140;8.904;2024-01-06T05:07:01;1.60;99.90
11855;DHT22;5987;53.140;8.904;2024-01-06T05:10:06;1.70;99.90
11855;DHT22;5987;53.140;8.904;2024-01-06T05:13:12;1.70;99.90
11855;DHT22;5987;53.140;8.904;2024-01-06T05:16:16;1.70;99.90
11855;DHT22;5987;53.140;8.904;2024-01-06T05:19:20;1.60;99.90
11855;DHT22;5987;53.140;8.904;2024-01-06T05:22:24;1.60;99.90
11855;DHT22;5987;53.140;8.904;2024-01-06T05:25:28;1.60;99.90
11855;DHT22;5987;53.140;8.904;2024-01-06T05:28:33;1.70;99.90
11855;DHT22;5987;53.140;8.904;2024-01-06T05:31:37;1.60;99.90
11855;DHT22;5987;53.140;8.904;2024-01-06T05:34:41;1.70;99.90
11855;DHT22;5987;53.140;8.904;2024-01-06T05:37:46;1.60;99.90
11855;DHT22;5987;53.140;8.904;2024-01-06T05:40:50;1.70;99.90
11855;DHT22;5987;53.140;8.904;2024-01-06T05:43:56;1.60;99.90
11855;DHT22;5987;53.140;8.904;2024-01-06T05:47:00;1.70;99.90
11855;DHT22;5987;53.140;8.904;2024-01-06T05:50:04;1.70;99.90
11855;DHT22;5987;53.140;8.904;2024-01-06T05:53:11;1.60;99.90
11855;DHT22;5987;53.140;8.904;2024-01-06T05:56:22;1.60;99.90
11855;DHT22;5987;53.140;8.904;2024-01-06T05:59:29;1.70;99.90
11855;DHT22;5987;53.140;8.904;2024-01-06T06:02:35;1.60;99.90
11855;DHT22;5987;53.140;8.904;2024-01-06T06:05:40;1.60;99.90
11855;DHT22;5987;53.140;8.904;2024-01-06T06:08:44;1.60;99.90
11855;DHT22;5987;53.140;8.904;2024-01-06T06:11:48;1.60;99.90
11855;DHT22;5987;53.140;8.904;2024-01-06T06:14:53;1.60;99.90
11855;DHT22;5987;53.140;8.904;2024-01-06T06:17:58;1.60;99.90
11855;DHT22;5987;53.140;8.904;2024-01-06T06:21:03;1.60;99.90
11855;DHT22;5987;53.140;8.904;2024-01-06T06:24:07;1.60;99.90
11855;DHT22;5987;53.140;8.904;2024-01-06T06:27:11;1.60;99.90
11855;DHT22;5987;53.140;8.904;2024-01-06T06:30:17;1.60;99.90
11855;DHT22;5987;53.140;8.904;2024-01-06T06:33:21;1.60;99.90
11855;DHT22;5987;53.140;8.904;2024-01-06T06:36:25;1.50;99.90
11855;DHT22;5987;53.140;8.904;2024-01-06T06:39:28;1.50;99.90
11855;DHT22;5987;53.140;8.904;2024-01-06T06:42:34;1.50;99.90
11855;DHT22;5987;53.140;8.904;2024-01-06T06:45:39;1.50;99.90
11855;DHT22;5987;53.140;8.904;2024-01-06T06:48:43;1.40;99.90
11855;DHT22;5987;53.140;8.904;2024-01-06T06:51:47;1.40;99.90
11855;DHT22;5987;53.140;8.904;2024-01-06T06:54:52;1.40;99.90
11855;DHT22;5987;53.140;8.904;2024-01-06T06:57:56;1.40;99.90
11855;DHT22;5987;53.140;8.904;2024-01-06T07:01:01;1.30;99.90
11855;DHT22;5987;53.140;8.904;2024-01-06T07:04:07;1.30;99.90
11855;DHT22;5987;53.140;8.904;2024-01-06T07:07:11;1.30;99.90
11855;DHT22;5987;53.140;8.904;2024-01-06T07:10:15;1.30;99.90
11855;DHT22;5987;53.140;8.904;2024-01-06T07:13:19;1.30;99.90
11855;DHT22;5987;53.140;8.904;2024-01-06T07:16:24;1.30;99.90
11855;DHT22;5987;53.140;8.904;2024-01-06T07:19:29;1.20;99.90
11855;DHT22;5987;53.140;8.904;2024-01-06T07:22:32;1.20;99.90
11855;DHT22;5987;53.140;8.904;2024-01-06T07:25:37;1.30;99.90
11855;DHT22;5987;53.140;8.904;2024-01-06T07:28:41;1.30;99.90
11855;DHT22;5987;53.140;8.904;2024-01-06T07:31:46;1.20;99.90
11855;DHT22;5987;53.140;8.904;2024-01-06T07:34:51;1.20;99.90
11855;DHT22;5987;53.140;8.904;2024-01-06T07:37:54;1.20;99.90
11855;DHT22;5987;53.140;8.904;2024-01-06T07:40:58;1.20;99.90
11855;DHT22;5987;53.140;8.904;2024-01-06T07:44:02;1.20;99.90
11855;DHT22;5987;53.140;8.904;2024-01-06T07:47:08;1.20;99.90
11855;DHT22;5987;53.140;8.904;2024-01-06T07:50:12;1.20;99.90
11855;DHT22;5987;53.140;8.904;2024-01-06T07:53:16;1.30;99.90
11855;DHT22;5987;53.140;8.904;2024-01-06T07:56:20;1.20;99.90
11855;DHT22;5987;53.140;8.904;2024-01-06T07:59:24;1.20;99.90
11855;DHT22;5987;53.140;8.904;2024-01-06T08:02:29;1.20;99.90
11855;DHT22;5987;53.140;8.904;2024-01-06T08:05:33;1.20;99.90
11855;DHT22;5987;53.140;8.904;2024-01-06T08:08:37;1.20;99.90
11855;DHT22;5987;53.140;8.904;2024-01-06T08:11:40;1.20;99.90
11855;DHT22;5987;53.140;8.904;2024-01-06T08:14:45;1.20;99.90
11855;DHT22;5987;53.140;8.904;2024-01-06T08:17:50;1.20;99.90
11855;DHT22;5987;53.140;8.904;2024-01-06T08:20:55;1.20;99.90
11855;DHT22;5987;53.140;8.904;2024-01-06T08:23:59;1.20;99.90
11855;DHT22;5987;53.140;8.904;2024-01-06T08:27:03;1.30;99.90
11855;DHT22;5987;53.140;8.904;2024-01-06T08:30:08;1.20;99.90
11855;DHT22;5987;53.140;8.904;2024-01-06T08:33:14;1.20;99.90
11855;DHT22;5987;53.140;8.904;2024-01-06T08:36:20;1.30;99.90
11855;DHT22;5987;53.140;8.904;2024-01-06T08:39:24;1.30;99.90
11855;DHT22;5987;53.140;8.904;2024-01-06T08:42:27;1.30;99.90
11855;DHT22;5987;53.140;8.904;2024-01-06T08:45:31;1.30;99.90
11855;DHT22;5987;53.140;8.904;2024-01-06T08:48:37;1.20;99.90
11855;DHT22;5987;53.140;8.904;2024-01-06T08:51:41;1.20;99.90
11855;DHT22;5987;53.140;8.904;2024-01-06T08:54:45;1.20;99.90
11855;DHT22;5987;53.140;8.904;2024-01-06T08:57:48;1.30;99.90
11855;DHT22;5987;53.140;8.904;2024-01-06T09:00:52;1.30;99.90
11855;DHT22;5987;53.140;8.904;2024-01-06T09:03:58;1.30;99.90
11855;DHT22;5987;53.140;8.904;2024-01-06T09:07:02;1.30;99.90
11855;DHT22;5987;53.140;8.904;2024-01-06T09:10:08;1.30;99.90
11855;DHT22;5987;53.140;8.904;2024-01-06T09:13:12;1.20;99.90
11855;DHT22;5987;53.140;8.904;2024-01-06T09:16:16;1.20;99.90
11855;DHT22;5987;53.140;8.904;2024-01-06T09:19:22;1.30;99.90
11855;DHT22;5987;53.140;8.904;2024-01-06T09:22:26;1.20;99.90
11855;DHT22;5987;53.140;8.904;2024-01-06T09:25:30;1.30;99.90
11855;DHT22;5987;53.140;8.904;2024-01-06T09:28:34;1.30;99.90
11855;DHT22;5987;53.140;8.904;2024-01-06T09:31:38;1.30;99.90
11855;DHT22;5987;53.140;8.904;2024-01-06T09:34:44;1.40;99.90
11855;DHT22;5987;53.140;8.904;2024-01-06T09:37:48;1.30;99.90
11855;DHT22;5987;53.140;8.904;2024-01-06T09:40:53;1.40;99.90
11855;DHT22;5987;53.140;8.904;2024-01-06T09:43:59;1.30;99.90
11855;DHT22;5987;53.140;8.904;2024-01-06T09:47:04;1.30;99.90
11855;DHT22;5987;53.140;8.904;2024-01-06T09:50:11;1.30;99.90
11855;DHT22;5987;53.140;8.904;2024-01-06T09:53:17;1.20;99.90
11855;DHT22;5987;53.140;8.904;2024-01-06T09:56:21;1.20;99.90
11855;DHT22;5987;53.140;8.904;2024-01-06T09:59:28;1.20;99.90
11855;DHT22;5987;53.140;8.904;2024-01-06T10:02:37;1.20;99.90
11855;DHT22;5987;53.140;8.904;2024-01-06T10:05:42;1.20;99.90
11855;DHT22;5987;53.140;8.904;2024-01-06T10:08:49;1.30;99.90
11855;DHT22;5987;53.140;8.904;2024-01-06T10:11:55;1.40;99.90
11855;DHT22;5987;53.140;8.904;2024-01-06T10:15:02;1.40;99.90
11855;DHT22;5987;53.140;8.904;2024-01-06T10:18:07;1.40;99.90
11855;DHT22;5987;53.140;8.904;2024-01-06T10:21:13;1.30;99.90
11855;DHT22;5987;53.140;8.904;2024-01-06T10:24:19;1.30;99.90
11855;DHT22;5987;53.140;8.904;2024-01-06T10:27:23;1.30;99.90
11855;DHT22;5987;53.140;8.904;2024-01-06T10:30:27;1.30;99.90
11855;DHT22;5987;53.140;8.904;2024-01-06T10:33:33;1.30;99.90
11855;DHT22;5987;53.140;8.904;2024-01-06T10:36:38;1.30;99.90
11855;DHT22;5987;53.140;8.904;2024-01-06T10:39:42;1.00;99.90
11855;DHT22;5987;53.140;8.904;2024-01-06T10:42:46;1.30;99.90
11855;DHT22;5987;53.140;8.904;2024-01-06T10:45:51;1.30;99.90
11855;DHT22;5987;53.140;8.904;2024-01-06T10:48:57;1.30;99.90
11855;DHT22;5987;53.140;8.904;2024-01-06T10:52:05;1.30;99.90
11855;DHT22;5987;53.140;8.904;2024-01-06T10:55:09;1.20;99.90
11855;DHT22;5987;53.140;8.904;2024-01-06T10:58:14;1.20;99.90
11855;DHT22;5987;53.140;8.904;2024-01-06T11:01:22;1.30;99.90
11855;DHT22;5987;53.140;8.904;2024-01-06T11:04:31;1.30;99.90
11855;DHT22;5987;53.140;8.904;2024-01-06T11:07:37;1.30;99.90
11855;DHT22;5987;53.140;8.904;2024-01-06T11:10:44;1.20;99.90
11855;DHT22;5987;53.140;8.904;2024-01-06T11:13:48;1.30;99.90
11855;DHT22;5987;53.140;8.904;2024-01-06T11:16:53;1.30;99.90
11855;DHT22;5987;53.140;8.904;2024-01-06T11:20:05;1.30;99.90
11855;DHT22;5987;53.140;8.904;2024-01-06T11:23:29;1.30;99.90
11855;DHT22;5987;53.140;8.904;2024-01-06T11:26:39;1.30;99.90
11855;DHT22;5987;53.140;8.904;2024-01-06T11:29:43;1.30;99.90
11855;DHT22;5987;53.140;8.904;2024-01-06T11:32:47;1.30;99.90
11855;DHT22;5987;53.140;8.904;2024-01-06T11:35:52;1.30;99.90
11855;DHT22;5987;53.140;8.904;2024-01-06T11:38:59;1.30;99.90
11855;DHT22;5987;53.140;8.904;2024-01-06T11:42:03;1.30;99.90
11855;DHT22;5987;53.140;8.904;2024-01-06T11:45:13;1.30;99.90
11855;DHT22;5987;53.140;8.904;2024-01-06T11:48:18;1.30;99.90
11855;DHT22;5987;53.140;8.904;2024-01-06T11:51:27;1.30;99.90
11855;DHT22;5987;53.140;8.904;2024-01-06T11:54:33;1.30;99.90
11855;DHT22;5987;53.140;8.904;2024-01-06T11:57:38;1.20;99.90
11855;DHT22;5987;53.140;8.904;2024-01-06T12:00:42;1.20;99.90
11855;DHT22;5987;53.140;8.904;2024-01-06T12:03:54;1.20;99.90
11855;DHT22;5987;53.140;8.904;2024-01-06T12:07:06;1.10;99.90
11855;DHT22;5987;53.140;8.904;2024-01-06T12:10:11;1.10;99.90
11855;DHT22;5987;53.140;8.904;2024-01-06T12:13:16;1.20;99.90
11855;DHT22;5987;53.140;8.904;2024-01-06T12:16:20;1.30;99.90
11855;DHT22;5987;53.140;8.904;2024-01-06T12:19:24;1.20;99.90
11855;DHT22;5987;53.140;8.904;2024-01-06T12:22:28;1.30;99.90
11855;DHT22;5987;53.140;8.904;2024-01-06T12:25:34;1.20;99.90
11855;DHT22;5987;53.140;8.904;2024-01-06T12:28:44;1.20;99.90
11855;DHT22;5987;53.140;8.904;2024-01-06T12:31:48;1.30;99.90
11855;DHT22;5987;53.140;8.904;2024-01-06T12:34:52;1.20;99.90
11855;DHT22;5987;53.140;8.904;2024-01-06T12:37:58;1.20;99.90
11855;DHT22;5987;53.140;8.904;2024-01-06T12:41:04;1.10;99.90
11855;DHT22;5987;53.140;8.904;2024-01-06T12:44:09;1.10;99.90
11855;DHT22;5987;53.140;8.904;2024-01-06T12:47:13;1.20;99.90
11855;DHT22;5987;53.140;8.904;2024-01-06T12:50:17;1.10;99.90
11855;DHT22;5987;53.140;8.904;2024-01-06T12:53:22;1.10;99.90
11855;DHT22;5987;53.140;8.904;2024-01-06T12:56:27;1.10;99.90
11855;DHT22;5987;53.140;8.904;2024-01-06T12:59:32;1.10;99.90
11855;DHT22;5987;53.140;8.904;2024-01-06T13:02:37;1.00;99.90
11855;DHT22;5987;53.140;8.904;2024-01-06T13:05:41;1.00;99.90
11855;DHT22;5987;53.140;8.904;2024-01-06T13:08:45;1.00;99.90
11855;DHT22;5987;53.140;8.904;2024-01-06T13:11:52;1.00;99.90
11855;DHT22;5987;53.140;8.904;2024-01-06T13:14:58;1.00;99.90
11855;DHT22;5987;53.140;8.904;2024-01-06T13:18:04;1.00;99.90
11855;DHT22;5987;53.140;8.904;2024-01-06T13:21:10;1.00;99.90
11855;DHT22;5987;53.140;8.904;2024-01-06T13:24:14;1.00;99.90
11855;DHT22;5987;53.140;8.904;2024-01-06T13:27:20;0.90;99.90
11855;DHT22;5987;53.140;8.904;2024-01-06T13:30:24;0.90;99.90
11855;DHT22;5987;53.140;8.904;2024-01-06T13:33:28;1.00;99.90
11855;DHT22;5987;53.140;8.904;2024-01-06T13:36:33;1.00;99.90
11855;DHT22;5987;53.140;8.904;2024-01-06T13:39:38;1.00;99.90
11855;DHT22;5987;53.140;8.904;2024-01-06T13:42:43;1.00;99.90
11855;DHT22;5987;53.140;8.904;2024-01-06T13:45:48;1.10;99.90
11855;DHT22;5987;53.140;8.904;2024-01-06T13:48:52;1.10;99.90
11855;DHT22;5987;53.140;8.904;2024-01-06T13:51:57;1.10;99.90
11855;DHT22;5987;53.140;8.904;2024-01-06T13:55:02;1.10;99.90
11855;DHT22;5987;53.140;8.904;2024-01-06T13:58:08;1.00;99.90
11855;DHT22;5987;53.140;8.904;2024-01-06T14:01:13;1.00;99.90
11855;DHT22;5987;53.140;8.904;2024-01-06T14:04:17;1.00;99.90
11855;DHT22;5987;53.140;8.904;2024-01-06T14:07:21;1.00;99.90
11855;DHT22;5987;53.140;8.904;2024-01-06T14:10:26;1.00;99.90
11855;DHT22;5987;53.140;8.904;2024-01-06T14:13:33;1.00;99.90
11855;DHT22;5987;53.140;8.904;2024-01-06T14:16:37;1.00;99.90
11855;DHT22;5987;53.140;8.904;2024-01-06T14:19:41;1.00;99.90
11855;DHT22;5987;53.140;8.904;2024-01-06T14:22:49;1.10;99.90
11855;DHT22;5987;53.140;8.904;2024-01-06T14:25:53;1.10;99.90
11855;DHT22;5987;53.140;8.904;2024-01-06T14:28:58;1.10;99.90
11855;DHT22;5987;53.140;8.904;2024-01-06T14:32:03;1.10;99.90
11855;DHT22;5987;53.140;8.904;2024-01-06T14:35:08;1.10;99.90
11855;DHT22;5987;53.140;8.904;2024-01-06T14:38:14;1.10;99.90
11855;DHT22;5987;53.140;8.904;2024-01-06T14:41:18;1.00;99.90
11855;DHT22;5987;53.140;8.904;2024-01-06T14:44:23;1.00;99.90
11855;DHT22;5987;53.140;8.904;2024-01-06T14:47:29;1.00;99.90
11855;DHT22;5987;53.140;8.904;2024-01-06T14:50:34;1.20;99.90
11855;DHT22;5987;53.140;8.904;2024-01-06T14:53:38;1.20;99.90
11855;DHT22;5987;53.140;8.904;2024-01-06T14:56:43;1.10;99.90
11855;DHT22;5987;53.140;8.904;2024-01-06T14:59:50;1.10;99.90
11855;DHT22;5987;53.140;8.904;2024-01-06T15:02:54;1.00;99.90
11855;DHT22;5987;53.140;8.904;2024-01-06T15:05:58;1.10;99.90
11855;DHT22;5987;53.140;8.904;2024-01-06T15:09:03;1.00;99.90
11855;DHT22;5987;53.140;8.904;2024-01-06T15:12:08;1.10;99.90
11855;DHT22;5987;53.140;8.904;2024-01-06T15:15:15;1.10;99.90
11855;DHT22;5987;53.140;8.904;2024-01-06T15:18:19;1.10;99.90
11855;DHT22;5987;53.140;8.904;2024-01-06T15:21:23;1.10;99.90
11855;DHT22;5987;53.140;8.904;2024-01-06T15:24:28;1.10;99.90
11855;DHT22;5987;53.140;8.904;2024-01-06T15:27:33;1.10;99.90
11855;DHT22;5987;53.140;8.904;2024-01-06T15:30:39;1.10;99.90
11855;DHT22;5987;53.140;8.904;2024-01-06T15:33:43;1.10;99.90
11855;DHT22;5987;53.140;8.904;2024-01-06T15:36:50;1.10;99.90
11855;DHT22;5987;53.140;8.904;2024-01-06T15:39:54;1.10;99.90
11855;DHT22;5987;53.140;8.904;2024-01-06T15:42:58;1.00;99.90
11855;DHT22;5987;53.140;8.904;2024-01-06T15:46:03;1.00;99.90
11855;DHT22;5987;53.140;8.904;2024-01-06T15:49:07;1.10;99.90
11855;DHT22;5987;53.140;8.904;2024-01-06T15:52:11;1.10;99.90
11855;DHT22;5987;53.140;8.904;2024-01-06T15:55:15;1.00;99.90
11855;DHT22;5987;53.140;8.904;2024-01-06T15:58:19;1.10;99.90
11855;DHT22;5987;53.140;8.904;2024-01-06T16:01:24;1.10;99.90
11855;DHT22;5987;53.140;8.904;2024-01-06T16:04:28;1.10;99.90
11855;DHT22;5987;53.140;8.904;2024-01-06T16:07:33;1.10;99.90
11855;DHT22;5987;53.140;8.904;2024-01-06T16:10:40;1.10;99.90
11855;DHT22;5987;53.140;8.904;2024-01-06T16:13:44;1.10;99.90
11855;DHT22;5987;53.140;8.904;2024-01-06T16:16:50;1.10;99.90
11855;DHT22;5987;53.140;8.904;2024-01-06T16:19:54;1.10;99.90
11855;DHT22;5987;53.140;8.904;2024-01-06T16:22:58;1.10;99.90
11855;DHT22;5987;53.140;8.904;2024-01-06T16:26:03;1.10;99.90
11855;DHT22;5987;53.140;8.904;2024-01-06T16:29:10;1.10;99.90
11855;DHT22;5987;53.140;8.904;2024-01-06T16:32:15;1.10;99.90
11855;DHT22;5987;53.140;8.904;2024-01-06T16:35:19;1.00;99.90
11855;DHT22;5987;53.140;8.904;2024-01-06T16:38:23;1.00;99.90
11855;DHT22;5987;53.140;8.904;2024-01-06T16:41:29;0.90;99.90
11855;DHT22;5987;53.140;8.904;2024-01-06T16:44:33;0.90;99.90
11855;DHT22;5987;53.140;8.904;2024-01-06T16:47:38;0.90;99.90
11855;DHT22;5987;53.140;8.904;2024-01-06T16:50:42;0.90;99.90
11855;DHT22;5987;53.140;8.904;2024-01-06T16:53:49;0.80;99.90
11855;DHT22;5987;53.140;8.904;2024-01-06T16:56:55;0.80;99.90
11855;DHT22;5987;53.140;8.904;2024-01-06T17:00:02;0.80;99.90
11855;DHT22;5987;53.140;8.904;2024-01-06T17:03:09;0.80;99.90
11855;DHT22;5987;53.140;8.904;2024-01-06T17:06:14;0.90;99.90
11855;DHT22;5987;53.140;8.904;2024-01-06T17:09:19;0.80;99.90
11855;DHT22;5987;53.140;8.904;2024-01-06T17:12:23;0.80;99.90
11855;DHT22;5987;53.140;8.904;2024-01-06T17:15:30;0.80;99.90
11855;DHT22;5987;53.140;8.904;2024-01-06T17:18:36;0.90;99.90
11855;DHT22;5987;53.140;8.904;2024-01-06T17:21:40;0.90;99.90
11855;DHT22;5987;53.140;8.904;2024-01-06T17:24:44;0.90;99.90
11855;DHT22;5987;53.140;8.904;2024-01-06T17:27:48;0.90;99.90
11855;DHT22;5987;53.140;8.904;2024-01-06T17:30:53;1.00;99.90
11855;DHT22;5987;53.140;8.904;2024-01-06T17:33:59;1.00;99.90
11855;DHT22;5987;53.140;8.904;2024-01-06T17:37:03;1.00;99.90
11855;DHT22;5987;53.140;8.904;2024-01-06T17:40:08;0.90;99.90
11855;DHT22;5987;53.140;8.904;2024-01-06T17:43:13;0.90;99.90
11855;DHT22;5987;53.140;8.904;2024-01-06T17:46:19;0.90;99.90
11855;DHT22;5987;53.140;8.904;2024-01-06T17:49:25;0.80;99.90
11855;DHT22;5987;53.140;8.904;2024-01-06T17:52:29;0.90;99.90
11855;DHT22;5987;53.140;8.904;2024-01-06T17:55:35;0.90;99.90
11855;DHT22;5987;53.140;8.904;2024-01-06T17:58:40;0.90;99.90
11855;DHT22;5987;53.140;8.904;2024-01-06T18:01:44;1.00;99.90
11855;DHT22;5987;53.140;8.904;2024-01-06T18:04:50;0.90;99.90
11855;DHT22;5987;53.140;8.904;2024-01-06T18:07:54;0.90;99.90
11855;DHT22;5987;53.140;8.904;2024-01-06T18:10:58;0.80;99.90
11855;DHT22;5987;53.140;8.904;2024-01-06T18:14:02;0.90;99.90
11855;DHT22;5987;53.140;8.904;2024-01-06T18:17:06;0.90;99.90
11855;DHT22;5987;53.140;8.904;2024-01-06T18:20:13;0.90;99.90
11855;DHT22;5987;53.140;8.904;2024-01-06T18:23:23;0.90;99.90
11855;DHT22;5987;53.140;8.904;2024-01-06T18:26:28;0.80;99.90
11855;DHT22;5987;53.140;8.904;2024-01-06T18:29:35;0.80;99.90
11855;DHT22;5987;53.140;8.904;2024-01-06T18:32:39;0.70;99.90
11855;DHT22;5987;53.140;8.904;2024-01-06T18:35:46;0.70;99.90
11855;DHT22;5987;53.140;8.904;2024-01-06T18:38:50;0.70;99.90
11855;DHT22;5987;53.140;8.904;2024-01-06T18:41:54;0.60;99.90
11855;DHT22;5987;53.140;8.904;2024-01-06T18:44:59;0.70;99.90
11855;DHT22;5987;53.140;8.904;2024-01-06T18:48:05;0.60;99.90
11855;DHT22;5987;53.140;8.904;2024-01-06T18:51:12;0.70;99.90
11855;DHT22;5987;53.140;8.904;2024-01-06T18:54:16;0.70;99.90
11855;DHT22;5987;53.140;8.904;2024-01-06T18:57:32;0.70;99.90
11855;DHT22;5987;53.140;8.904;2024-01-06T19:00:37;0.70;99.90
11855;DHT22;5987;53.140;8.904;2024-01-06T19:03:41;0.80;99.90
11855;DHT22;5987;53.140;8.904;2024-01-06T19:06:47;0.80;99.90
11855;DHT22;5987;53.140;8.904;2024-01-06T19:09:51;0.70;99.90
11855;DHT22;5987;53.140;8.904;2024-01-06T19:12:55;0.70;99.90
11855;DHT22;5987;53.140;8.904;2024-01-06T19:15:59;0.70;99.90
11855;DHT22;5987;53.140;8.904;2024-01-06T19:19:03;0.60;99.90
11855;DHT22;5987;53.140;8.904;2024-01-06T19:22:12;0.60;99.90
11855;DHT22;5987;53.140;8.904;2024-01-06T19:25:17;0.70;99.90
11855;DHT22;5987;53.140;8.904;2024-01-06T19:28:22;0.70;99.90
11855;DHT22;5987;53.140;8.904;2024-01-06T19:31:26;0.70;99.90
11855;DHT22;5987;53.140;8.904;2024-01-06T19:34:30;0.60;99.90
11855;DHT22;5987;53.140;8.904;2024-01-06T19:37:36;0.60;99.90
11855;DHT22;5987;53.140;8.904;2024-01-06T19:40:40;0.60;99.90
11855;DHT22;5987;53.140;8.904;2024-01-06T19:43:44;0.60;99.90
11855;DHT22;5987;53.140;8.904;2024-01-06T19:46:47;0.60;99.90
11855;DHT22;5987;53.140;8.904;2024-01-06T19:49:52;0.60;99.90
11855;DHT22;5987;53.140;8.904;2024-01-06T19:52:57;0.60;99.90
11855;DHT22;5987;53.140;8.904;2024-01-06T19:56:02;0.60;99.90
11855;DHT22;5987;53.140;8.904;2024-01-06T19:59:06;0.60;99.90
11855;DHT22;5987;53.140;8.904;2024-01-06T20:02:11;0.60;99.90
11855;DHT22;5987;53.140;8.904;2024-01-06T20:05:15;0.60;99.90
11855;DHT22;5987;53.140;8.904;2024-01-06T20:08:22;0.50;99.90